KBFI/BFI METAR and TAF weather

Enter ICAO airport designator
Station Type Date Time Source
KBFI METAR 2022/07/01 01:53 UTC NOAA

KBFI 010153Z 30007KT 10SM CLR 23/09 A3005 RMK AO2 SLP176 T02280094


Station Type Date Time Source
KBFI Decoded METAR 2022/07/01 01:53 UTC NOAA

SEATTLE BOEING FIELD, WA, United States (KBFI) 47-33N 122-19W 4M
Jun 30, 2022 - 09:53 PM EDT / 2022.07.01 0153 UTC
Wind: from the WNW (300 degrees) at 8 MPH (7 KT):0
Visibility: 10 mile(s):0
Sky conditions: clear
Temperature: 73.0 F (22.8 C)
Dew Point: 48.9 F (9.4 C)
Relative Humidity: 42%
Pressure (altimeter): 30.05 in. Hg (1017 hPa)
ob: KBFI 010153Z 30007KT 10SM CLR 23/09 A3005 RMK AO2 SLP176 T02280094
cycle: 2

Station Type Date Time Source
KBFI TAF 2022/06/30 18:33 UTC NOAA

TAF KBFI 301730Z 3018/0118 VRB03KT P6SM FEW030 SCT250
FM302100 31005KT P6SM SCT200
FM010600 VRB03KT P6SM SCT200

Example: see airport list